sensor_id;sensor_type;location;lat;lon;timestamp;P1;durP1;ratioP1;P2;durP2;ratioP2
2576;SDS011;1298;51.252;6.802;2022-09-13T00:02:14;0.40;;;0.40;;
2576;SDS011;1298;51.252;6.802;2022-09-13T00:04:59;0.40;;;0.32;;
2576;SDS011;1298;51.252;6.802;2022-09-13T00:07:46;0.47;;;0.47;;
2576;SDS011;1298;51.252;6.802;2022-09-13T00:10:33;0.60;;;0.60;;
2576;SDS011;1298;51.252;6.802;2022-09-13T00:13:19;0.70;;;0.70;;
2576;SDS011;1298;51.252;6.802;2022-09-13T00:16:08;0.57;;;0.57;;
2576;SDS011;1298;51.252;6.802;2022-09-13T00:18:55;0.50;;;0.50;;
2576;SDS011;1298;51.252;6.802;2022-09-13T00:21:41;0.80;;;0.80;;
2576;SDS011;1298;51.252;6.802;2022-09-13T00:24:28;0.63;;;0.63;;
2576;SDS011;1298;51.252;6.802;2022-09-13T00:27:13;0.82;;;0.82;;
2576;SDS011;1298;51.252;6.802;2022-09-13T00:29:59;0.47;;;0.47;;
2576;SDS011;1298;51.252;6.802;2022-09-13T00:32:44;0.45;;;0.45;;
2576;SDS011;1298;51.252;6.802;2022-09-13T00:35:30;0.32;;;0.32;;
2576;SDS011;1298;51.252;6.802;2022-09-13T00:38:16;0.50;;;0.50;;
2576;SDS011;1298;51.252;6.802;2022-09-13T00:41:03;0.65;;;0.65;;
2576;SDS011;1298;51.252;6.802;2022-09-13T00:43:50;0.82;;;0.82;;
2576;SDS011;1298;51.252;6.802;2022-09-13T00:46:37;0.70;;;0.70;;
2576;SDS011;1298;51.252;6.802;2022-09-13T00:49:27;0.98;;;0.98;;
2576;SDS011;1298;51.252;6.802;2022-09-13T00:52:17;0.80;;;0.80;;
2576;SDS011;1298;51.252;6.802;2022-09-13T00:55:07;0.40;;;0.40;;
2576;SDS011;1298;51.252;6.802;2022-09-13T00:57:58;0.50;;;0.50;;
2576;SDS011;1298;51.252;6.802;2022-09-13T01:00:49;0.82;;;0.82;;
2576;SDS011;1298;51.252;6.802;2022-09-13T01:03:36;0.68;;;0.68;;
2576;SDS011;1298;51.252;6.802;2022-09-13T01:06:23;0.60;;;0.60;;
2576;SDS011;1298;51.252;6.802;2022-09-13T01:09:12;0.40;;;0.40;;
2576;SDS011;1298;51.252;6.802;2022-09-13T01:11:58;0.68;;;0.68;;
2576;SDS011;1298;51.252;6.802;2022-09-13T01:14:52;0.55;;;0.55;;
2576;SDS011;1298;51.252;6.802;2022-09-13T01:17:40;1.10;;;1.10;;
2576;SDS011;1298;51.252;6.802;2022-09-13T01:20:30;1.20;;;1.17;;
2576;SDS011;1298;51.252;6.802;2022-09-13T01:23:52;0.88;;;0.88;;
2576;SDS011;1298;51.252;6.802;2022-09-13T01:27:09;0.57;;;0.57;;
2576;SDS011;1298;51.252;6.802;2022-09-13T01:30:11;0.50;;;0.50;;
2576;SDS011;1298;51.252;6.802;2022-09-13T01:33:03;1.52;;;1.42;;
2576;SDS011;1298;51.252;6.802;2022-09-13T01:36:12;0.60;;;0.60;;
2576;SDS011;1298;51.252;6.802;2022-09-13T01:39:21;1.38;;;1.30;;
2576;SDS011;1298;51.252;6.802;2022-09-13T01:42:18;1.05;;;1.05;;
2576;SDS011;1298;51.252;6.802;2022-09-13T01:45:16;0.82;;;0.82;;
2576;SDS011;1298;51.252;6.802;2022-09-13T01:48:08;0.32;;;0.32;;
2576;SDS011;1298;51.252;6.802;2022-09-13T01:51:01;0.25;;;0.20;;
2576;SDS011;1298;51.252;6.802;2022-09-13T01:53:51;0.80;;;0.80;;
2576;SDS011;1298;51.252;6.802;2022-09-13T01:56:50;0.45;;;0.45;;
2576;SDS011;1298;51.252;6.802;2022-09-13T01:59:42;0.40;;;0.40;;
2576;SDS011;1298;51.252;6.802;2022-09-13T02:02:33;0.30;;;0.30;;
2576;SDS011;1298;51.252;6.802;2022-09-13T02:05:27;0.47;;;0.47;;
2576;SDS011;1298;51.252;6.802;2022-09-13T02:08:18;0.50;;;0.50;;
2576;SDS011;1298;51.252;6.802;2022-09-13T02:11:08;0.60;;;0.60;;
2576;SDS011;1298;51.252;6.802;2022-09-13T02:13:56;0.40;;;0.40;;
2576;SDS011;1298;51.252;6.802;2022-09-13T02:16:45;0.35;;;0.35;;
2576;SDS011;1298;51.252;6.802;2022-09-13T02:19:39;0.68;;;0.68;;
2576;SDS011;1298;51.252;6.802;2022-09-13T02:22:31;0.43;;;0.43;;
2576;SDS011;1298;51.252;6.802;2022-09-13T02:25:19;0.38;;;0.38;;
2576;SDS011;1298;51.252;6.802;2022-09-13T02:28:08;0.50;;;0.50;;
2576;SDS011;1298;51.252;6.802;2022-09-13T02:30:58;0.73;;;0.73;;
2576;SDS011;1298;51.252;6.802;2022-09-13T02:33:47;0.80;;;0.80;;
2576;SDS011;1298;51.252;6.802;2022-09-13T02:36:37;0.40;;;0.40;;
2576;SDS011;1298;51.252;6.802;2022-09-13T02:39:25;0.38;;;0.38;;
2576;SDS011;1298;51.252;6.802;2022-09-13T02:42:13;0.45;;;0.45;;
2576;SDS011;1298;51.252;6.802;2022-09-13T02:45:02;0.30;;;0.20;;
2576;SDS011;1298;51.252;6.802;2022-09-13T02:47:51;0.57;;;0.57;;
2576;SDS011;1298;51.252;6.802;2022-09-13T02:50:44;0.88;;;0.88;;
2576;SDS011;1298;51.252;6.802;2022-09-13T02:53:38;0.88;;;0.88;;
2576;SDS011;1298;51.252;6.802;2022-09-13T02:56:31;0.90;;;0.90;;
2576;SDS011;1298;51.252;6.802;2022-09-13T02:59:23;1.65;;;1.65;;
2576;SDS011;1298;51.252;6.802;2022-09-13T03:02:09;0.70;;;0.70;;
2576;SDS011;1298;51.252;6.802;2022-09-13T03:04:58;0.88;;;0.88;;
2576;SDS011;1298;51.252;6.802;2022-09-13T03:07:43;0.98;;;0.98;;
2576;SDS011;1298;51.252;6.802;2022-09-13T03:10:34;0.73;;;0.73;;
2576;SDS011;1298;51.252;6.802;2022-09-13T03:13:33;0.40;;;0.40;;
2576;SDS011;1298;51.252;6.802;2022-09-13T03:16:34;0.55;;;0.55;;
2576;SDS011;1298;51.252;6.802;2022-09-13T03:19:31;0.85;;;0.85;;
2576;SDS011;1298;51.252;6.802;2022-09-13T03:22:35;0.50;;;0.50;;
2576;SDS011;1298;51.252;6.802;2022-09-13T03:25:48;0.40;;;0.40;;
2576;SDS011;1298;51.252;6.802;2022-09-13T03:28:51;0.63;;;0.63;;
2576;SDS011;1298;51.252;6.802;2022-09-13T03:31:47;0.40;;;0.40;;
2576;SDS011;1298;51.252;6.802;2022-09-13T03:34:39;0.40;;;0.38;;
2576;SDS011;1298;51.252;6.802;2022-09-13T03:37:30;1.45;;;1.38;;
2576;SDS011;1298;51.252;6.802;2022-09-13T03:40:20;1.80;;;1.70;;
2576;SDS011;1298;51.252;6.802;2022-09-13T03:43:11;0.70;;;0.70;;
2576;SDS011;1298;51.252;6.802;2022-09-13T03:46:01;0.65;;;0.65;;
2576;SDS011;1298;51.252;6.802;2022-09-13T03:48:49;1.25;;;1.25;;
2576;SDS011;1298;51.252;6.802;2022-09-13T03:51:36;1.27;;;1.27;;
2576;SDS011;1298;51.252;6.802;2022-09-13T03:54:24;1.23;;;1.23;;
2576;SDS011;1298;51.252;6.802;2022-09-13T03:57:14;0.82;;;0.82;;
2576;SDS011;1298;51.252;6.802;2022-09-13T04:00:03;1.00;;;1.00;;
2576;SDS011;1298;51.252;6.802;2022-09-13T04:02:49;0.30;;;0.30;;
2576;SDS011;1298;51.252;6.802;2022-09-13T04:05:35;0.30;;;0.30;;
2576;SDS011;1298;51.252;6.802;2022-09-13T04:08:20;0.52;;;0.52;;
2576;SDS011;1298;51.252;6.802;2022-09-13T04:11:06;0.20;;;0.10;;
2576;SDS011;1298;51.252;6.802;2022-09-13T04:13:52;0.25;;;0.20;;
2576;SDS011;1298;51.252;6.802;2022-09-13T04:16:39;0.40;;;0.40;;
2576;SDS011;1298;51.252;6.802;2022-09-13T04:19:24;0.32;;;0.32;;
2576;SDS011;1298;51.252;6.802;2022-09-13T04:22:10;0.40;;;0.40;;
2576;SDS011;1298;51.252;6.802;2022-09-13T04:24:55;0.20;;;0.13;;
2576;SDS011;1298;51.252;6.802;2022-09-13T04:27:41;0.20;;;0.10;;
2576;SDS011;1298;51.252;6.802;2022-09-13T04:30:26;0.40;;;0.40;;
2576;SDS011;1298;51.252;6.802;2022-09-13T04:33:14;0.50;;;0.50;;
2576;SDS011;1298;51.252;6.802;2022-09-13T04:36:00;0.20;;;0.20;;
2576;SDS011;1298;51.252;6.802;2022-09-13T04:38:46;0.20;;;0.10;;
2576;SDS011;1298;51.252;6.802;2022-09-13T04:41:32;1.17;;;1.17;;
2576;SDS011;1298;51.252;6.802;2022-09-13T04:44:17;0.20;;;0.10;;
2576;SDS011;1298;51.252;6.802;2022-09-13T04:47:03;0.20;;;0.10;;
2576;SDS011;1298;51.252;6.802;2022-09-13T04:49:51;0.30;;;0.30;;
2576;SDS011;1298;51.252;6.802;2022-09-13T04:52:37;0.30;;;0.25;;
2576;SDS011;1298;51.252;6.802;2022-09-13T04:55:22;0.25;;;0.20;;
2576;SDS011;1298;51.252;6.802;2022-09-13T04:58:08;0.40;;;0.40;;
2576;SDS011;1298;51.252;6.802;2022-09-13T05:00:59;0.20;;;0.17;;
2576;SDS011;1298;51.252;6.802;2022-09-13T05:03:45;0.40;;;0.38;;
2576;SDS011;1298;51.252;6.802;2022-09-13T05:06:31;0.30;;;0.20;;
2576;SDS011;1298;51.252;6.802;2022-09-13T05:09:17;0.85;;;0.85;;
2576;SDS011;1298;51.252;6.802;2022-09-13T05:12:02;0.20;;;0.10;;
2576;SDS011;1298;51.252;6.802;2022-09-13T05:14:48;0.30;;;0.30;;
2576;SDS011;1298;51.252;6.802;2022-09-13T05:17:34;0.40;;;0.38;;
2576;SDS011;1298;51.252;6.802;2022-09-13T05:20:19;0.52;;;0.52;;
2576;SDS011;1298;51.252;6.802;2022-09-13T05:23:06;0.40;;;0.40;;
2576;SDS011;1298;51.252;6.802;2022-09-13T05:25:52;0.28;;;0.20;;
2576;SDS011;1298;51.252;6.802;2022-09-13T05:28:38;0.70;;;0.70;;
2576;SDS011;1298;51.252;6.802;2022-09-13T05:31:25;0.60;;;0.60;;
2576;SDS011;1298;51.252;6.802;2022-09-13T05:34:12;0.30;;;0.30;;
2576;SDS011;1298;51.252;6.802;2022-09-13T05:37:00;0.35;;;0.35;;
2576;SDS011;1298;51.252;6.802;2022-09-13T05:39:47;0.52;;;0.52;;
2576;SDS011;1298;51.252;6.802;2022-09-13T05:42:32;0.32;;;0.32;;
2576;SDS011;1298;51.252;6.802;2022-09-13T05:45:18;0.98;;;0.98;;
2576;SDS011;1298;51.252;6.802;2022-09-13T05:48:03;1.30;;;1.30;;
2576;SDS011;1298;51.252;6.802;2022-09-13T05:50:49;0.65;;;0.65;;
2576;SDS011;1298;51.252;6.802;2022-09-13T05:53:34;0.60;;;0.60;;
2576;SDS011;1298;51.252;6.802;2022-09-13T05:56:23;0.80;;;0.80;;
2576;SDS011;1298;51.252;6.802;2022-09-13T05:59:10;0.73;;;0.73;;
2576;SDS011;1298;51.252;6.802;2022-09-13T06:01:57;0.77;;;0.77;;
2576;SDS011;1298;51.252;6.802;2022-09-13T06:04:42;0.30;;;0.28;;
2576;SDS011;1298;51.252;6.802;2022-09-13T06:07:28;0.57;;;0.57;;
2576;SDS011;1298;51.252;6.802;2022-09-13T06:10:14;0.85;;;0.85;;
2576;SDS011;1298;51.252;6.802;2022-09-13T06:13:01;0.52;;;0.52;;
2576;SDS011;1298;51.252;6.802;2022-09-13T06:15:47;1.00;;;1.00;;
2576;SDS011;1298;51.252;6.802;2022-09-13T06:18:33;0.30;;;0.30;;
2576;SDS011;1298;51.252;6.802;2022-09-13T06:21:19;0.88;;;0.88;;
2576;SDS011;1298;51.252;6.802;2022-09-13T06:24:06;0.77;;;0.77;;
2576;SDS011;1298;51.252;6.802;2022-09-13T06:26:52;0.30;;;0.30;;
2576;SDS011;1298;51.252;6.802;2022-09-13T06:29:39;0.75;;;0.75;;
2576;SDS011;1298;51.252;6.802;2022-09-13T06:32:24;0.30;;;0.30;;
2576;SDS011;1298;51.252;6.802;2022-09-13T06:35:10;0.40;;;0.40;;
2576;SDS011;1298;51.252;6.802;2022-09-13T06:37:56;0.77;;;0.77;;
2576;SDS011;1298;51.252;6.802;2022-09-13T06:40:42;0.20;;;0.10;;
2576;SDS011;1298;51.252;6.802;2022-09-13T06:43:27;8.73;;;8.43;;
2576;SDS011;1298;51.252;6.802;2022-09-13T06:46:15;7.35;;;7.13;;
2576;SDS011;1298;51.252;6.802;2022-09-13T06:49:03;8.80;;;8.50;;
2576;SDS011;1298;51.252;6.802;2022-09-13T06:51:49;0.30;;;0.20;;
2576;SDS011;1298;51.252;6.802;2022-09-13T06:54:35;0.32;;;0.30;;
2576;SDS011;1298;51.252;6.802;2022-09-13T06:57:20;0.75;;;0.75;;
2576;SDS011;1298;51.252;6.802;2022-09-13T07:00:06;0.50;;;0.50;;
2576;SDS011;1298;51.252;6.802;2022-09-13T07:02:54;0.40;;;0.40;;
2576;SDS011;1298;51.252;6.802;2022-09-13T07:05:40;1.00;;;1.00;;
2576;SDS011;1298;51.252;6.802;2022-09-13T07:08:26;0.50;;;0.50;;
2576;SDS011;1298;51.252;6.802;2022-09-13T07:11:12;0.47;;;0.47;;
2576;SDS011;1298;51.252;6.802;2022-09-13T07:14:00;0.30;;;0.22;;
2576;SDS011;1298;51.252;6.802;2022-09-13T07:16:46;0.80;;;0.80;;
2576;SDS011;1298;51.252;6.802;2022-09-13T07:19:33;0.70;;;0.70;;
2576;SDS011;1298;51.252;6.802;2022-09-13T07:22:19;0.40;;;0.30;;
2576;SDS011;1298;51.252;6.802;2022-09-13T07:25:09;9.00;;;8.68;;
2576;SDS011;1298;51.252;6.802;2022-09-13T07:27:55;0.52;;;0.52;;
2576;SDS011;1298;51.252;6.802;2022-09-13T07:30:41;1.45;;;1.42;;
2576;SDS011;1298;51.252;6.802;2022-09-13T07:33:26;0.60;;;0.60;;
2576;SDS011;1298;51.252;6.802;2022-09-13T07:36:14;0.80;;;0.80;;
2576;SDS011;1298;51.252;6.802;2022-09-13T07:38:59;0.80;;;0.80;;
2576;SDS011;1298;51.252;6.802;2022-09-13T07:41:45;2.63;;;2.53;;
2576;SDS011;1298;51.252;6.802;2022-09-13T07:44:31;4.65;;;4.55;;
2576;SDS011;1298;51.252;6.802;2022-09-13T07:47:16;8.68;;;8.38;;
2576;SDS011;1298;51.252;6.802;2022-09-13T07:50:02;7.50;;;7.30;;
2576;SDS011;1298;51.252;6.802;2022-09-13T07:52:50;7.50;;;7.30;;
2576;SDS011;1298;51.252;6.802;2022-09-13T07:55:35;6.80;;;6.60;;
2576;SDS011;1298;51.252;6.802;2022-09-13T07:58:20;6.85;;;6.65;;
2576;SDS011;1298;51.252;6.802;2022-09-13T08:01:07;8.05;;;7.78;;
2576;SDS011;1298;51.252;6.802;2022-09-13T08:03:55;7.28;;;7.07;;
2576;SDS011;1298;51.252;6.802;2022-09-13T08:06:41;7.80;;;7.57;;
2576;SDS011;1298;51.252;6.802;2022-09-13T08:09:29;9.93;;;9.60;;
2576;SDS011;1298;51.252;6.802;2022-09-13T08:12:14;9.55;;;9.25;;
2576;SDS011;1298;51.252;6.802;2022-09-13T08:15:00;11.00;;;10.60;;
2576;SDS011;1298;51.252;6.802;2022-09-13T08:17:45;9.82;;;9.52;;
2576;SDS011;1298;51.252;6.802;2022-09-13T08:20:34;9.40;;;9.10;;
2576;SDS011;1298;51.252;6.802;2022-09-13T08:23:19;9.75;;;9.45;;
2576;SDS011;1298;51.252;6.802;2022-09-13T08:26:06;11.75;;;11.25;;
2576;SDS011;1298;51.252;6.802;2022-09-13T08:28:54;13.48;;;12.98;;
2576;SDS011;1298;51.252;6.802;2022-09-13T08:31:41;10.02;;;9.70;;
2576;SDS011;1298;51.252;6.802;2022-09-13T08:34:27;7.03;;;6.82;;
2576;SDS011;1298;51.252;6.802;2022-09-13T08:37:12;6.13;;;5.93;;
2576;SDS011;1298;51.252;6.802;2022-09-13T08:39:58;3.90;;;3.80;;
2576;SDS011;1298;51.252;6.802;2022-09-13T08:42:46;2.15;;;2.10;;
2576;SDS011;1298;51.252;6.802;2022-09-13T08:45:36;4.40;;;4.30;;
2576;SDS011;1298;51.252;6.802;2022-09-13T08:48:25;13.70;;;13.10;;
2576;SDS011;1298;51.252;6.802;2022-09-13T08:51:28;10.45;;;10.15;;
2576;SDS011;1298;51.252;6.802;2022-09-13T08:54:17;6.38;;;6.18;;
2576;SDS011;1298;51.252;6.802;2022-09-13T08:57:06;5.90;;;5.70;;
2576;SDS011;1298;51.252;6.802;2022-09-13T09:00:03;6.93;;;6.72;;
2576;SDS011;1298;51.252;6.802;2022-09-13T09:03:10;6.68;;;6.47;;
2576;SDS011;1298;51.252;6.802;2022-09-13T09:06:06;7.47;;;7.28;;
2576;SDS011;1298;51.252;6.802;2022-09-13T09:08:57;7.53;;;7.30;;
2576;SDS011;1298;51.252;6.802;2022-09-13T09:11:49;8.85;;;8.55;;
2576;SDS011;1298;51.252;6.802;2022-09-13T09:14:38;8.63;;;8.32;;
2576;SDS011;1298;51.252;6.802;2022-09-13T09:17:29;0.40;;;0.40;;
2576;SDS011;1298;51.252;6.802;2022-09-13T09:20:24;0.20;;;0.20;;
2576;SDS011;1298;51.252;6.802;2022-09-13T09:23:15;0.20;;;0.20;;
2576;SDS011;1298;51.252;6.802;2022-09-13T09:26:10;0.80;;;0.80;;
2576;SDS011;1298;51.252;6.802;2022-09-13T09:28:59;0.45;;;0.45;;
2576;SDS011;1298;51.252;6.802;2022-09-13T09:31:52;0.30;;;0.30;;
2576;SDS011;1298;51.252;6.802;2022-09-13T09:35:07;0.40;;;0.40;;
2576;SDS011;1298;51.252;6.802;2022-09-13T09:38:15;0.35;;;0.35;;
2576;SDS011;1298;51.252;6.802;2022-09-13T09:41:17;0.43;;;0.43;;
2576;SDS011;1298;51.252;6.802;2022-09-13T09:44:15;0.88;;;0.88;;
2576;SDS011;1298;51.252;6.802;2022-09-13T09:47:03;0.57;;;0.57;;
2576;SDS011;1298;51.252;6.802;2022-09-13T09:49:58;0.30;;;0.30;;
2576;SDS011;1298;51.252;6.802;2022-09-13T09:52:55;0.35;;;0.35;;
2576;SDS011;1298;51.252;6.802;2022-09-13T09:55:44;0.30;;;0.30;;
2576;SDS011;1298;51.252;6.802;2022-09-13T09:58:36;0.20;;;0.20;;
2576;SDS011;1298;51.252;6.802;2022-09-13T10:01:23;0.25;;;0.25;;
2576;SDS011;1298;51.252;6.802;2022-09-13T10:04:17;0.20;;;0.20;;
2576;SDS011;1298;51.252;6.802;2022-09-13T10:07:19;2.67;;;2.55;;
2576;SDS011;1298;51.252;6.802;2022-09-13T10:10:18;2.00;;;1.90;;
2576;SDS011;1298;51.252;6.802;2022-09-13T10:13:06;3.00;;;2.83;;
2576;SDS011;1298;51.252;6.802;2022-09-13T10:15:59;2.78;;;2.63;;
2576;SDS011;1298;51.252;6.802;2022-09-13T10:18:46;3.80;;;3.60;;
2576;SDS011;1298;51.252;6.802;2022-09-13T10:21:31;2.28;;;2.17;;
2576;SDS011;1298;51.252;6.802;2022-09-13T10:24:20;1.98;;;1.88;;
2576;SDS011;1298;51.252;6.802;2022-09-13T10:27:15;1.13;;;1.13;;
2576;SDS011;1298;51.252;6.802;2022-09-13T10:30:05;0.90;;;0.90;;
2576;SDS011;1298;51.252;6.802;2022-09-13T10:32:53;1.35;;;1.30;;
2576;SDS011;1298;51.252;6.802;2022-09-13T10:35:40;0.98;;;0.98;;
2576;SDS011;1298;51.252;6.802;2022-09-13T10:38:32;0.90;;;0.90;;
2576;SDS011;1298;51.252;6.802;2022-09-13T10:41:22;0.77;;;0.77;;
2576;SDS011;1298;51.252;6.802;2022-09-13T10:44:19;1.17;;;1.17;;
2576;SDS011;1298;51.252;6.802;2022-09-13T10:47:11;2.30;;;2.20;;
2576;SDS011;1298;51.252;6.802;2022-09-13T10:50:17;4.75;;;4.45;;
2576;SDS011;1298;51.252;6.802;2022-09-13T10:53:04;2.10;;;2.00;;
2576;SDS011;1298;51.252;6.802;2022-09-13T10:56:18;1.70;;;1.60;;
2576;SDS011;1298;51.252;6.802;2022-09-13T10:59:18;1.80;;;1.70;;
2576;SDS011;1298;51.252;6.802;2022-09-13T11:02:13;1.20;;;1.20;;
2576;SDS011;1298;51.252;6.802;2022-09-13T11:05:20;3.97;;;3.78;;
2576;SDS011;1298;51.252;6.802;2022-09-13T11:08:10;1.95;;;1.85;;
2576;SDS011;1298;51.252;6.802;2022-09-13T11:11:23;2.15;;;2.05;;
2576;SDS011;1298;51.252;6.802;2022-09-13T11:14:20;2.60;;;2.50;;
2576;SDS011;1298;51.252;6.802;2022-09-13T11:17:30;0.77;;;0.77;;
2576;SDS011;1298;51.252;6.802;2022-09-13T11:20:32;0.93;;;0.93;;
2576;SDS011;1298;51.252;6.802;2022-09-13T11:23:50;1.67;;;1.58;;
2576;SDS011;1298;51.252;6.802;2022-09-13T11:27:01;3.13;;;2.92;;
2576;SDS011;1298;51.252;6.802;2022-09-13T11:29:59;1.48;;;1.40;;
2576;SDS011;1298;51.252;6.802;2022-09-13T11:32:56;2.45;;;2.35;;
2576;SDS011;1298;51.252;6.802;2022-09-13T11:36:09;0.45;;;0.45;;
2576;SDS011;1298;51.252;6.802;2022-09-13T11:39:07;1.58;;;1.48;;
2576;SDS011;1298;51.252;6.802;2022-09-13T11:42:06;0.85;;;0.85;;
2576;SDS011;1298;51.252;6.802;2022-09-13T11:45:20;2.50;;;2.40;;
2576;SDS011;1298;51.252;6.802;2022-09-13T11:48:23;1.73;;;1.63;;
2576;SDS011;1298;51.252;6.802;2022-09-13T11:51:20;2.33;;;2.22;;
2576;SDS011;1298;51.252;6.802;2022-09-13T11:54:16;0.82;;;0.82;;
2576;SDS011;1298;51.252;6.802;2022-09-13T11:57:17;1.80;;;1.70;;
2576;SDS011;1298;51.252;6.802;2022-09-13T12:00:12;1.73;;;1.63;;
2576;SDS011;1298;51.252;6.802;2022-09-13T12:03:05;1.00;;;1.00;;
2576;SDS011;1298;51.252;6.802;2022-09-13T12:05:59;1.25;;;1.20;;
2576;SDS011;1298;51.252;6.802;2022-09-13T12:08:48;2.03;;;1.92;;
2576;SDS011;1298;51.252;6.802;2022-09-13T12:11:38;0.60;;;0.60;;
2576;SDS011;1298;51.252;6.802;2022-09-13T12:14:29;1.05;;;1.05;;
2576;SDS011;1298;51.252;6.802;2022-09-13T12:17:24;1.05;;;1.05;;
2576;SDS011;1298;51.252;6.802;2022-09-13T12:20:14;1.40;;;1.30;;
2576;SDS011;1298;51.252;6.802;2022-09-13T12:23:07;1.00;;;1.00;;
2576;SDS011;1298;51.252;6.802;2022-09-13T12:25:59;1.75;;;1.65;;
2576;SDS011;1298;51.252;6.802;2022-09-13T12:28:48;2.42;;;2.33;;
2576;SDS011;1298;51.252;6.802;2022-09-13T12:31:39;1.65;;;1.55;;
2576;SDS011;1298;51.252;6.802;2022-09-13T12:34:25;2.03;;;1.92;;
2576;SDS011;1298;51.252;6.802;2022-09-13T12:40:44;1.23;;;1.23;;
2576;SDS011;1298;51.252;6.802;2022-09-13T12:43:51;0.95;;;0.95;;
2576;SDS011;1298;51.252;6.802;2022-09-13T12:46:56;1.63;;;1.52;;
2576;SDS011;1298;51.252;6.802;2022-09-13T12:53:19;1.65;;;1.55;;
2576;SDS011;1298;51.252;6.802;2022-09-13T12:56:32;1.33;;;1.33;;
2576;SDS011;1298;51.252;6.802;2022-09-13T12:59:37;0.88;;;0.88;;
2576;SDS011;1298;51.252;6.802;2022-09-13T13:02:36;1.90;;;1.80;;
2576;SDS011;1298;51.252;6.802;2022-09-13T13:05:25;1.08;;;1.08;;
2576;SDS011;1298;51.252;6.802;2022-09-13T13:08:24;3.00;;;2.90;;
2576;SDS011;1298;51.252;6.802;2022-09-13T13:11:12;1.27;;;1.27;;
2576;SDS011;1298;51.252;6.802;2022-09-13T13:13:59;2.55;;;2.45;;
2576;SDS011;1298;51.252;6.802;2022-09-13T13:16:51;0.77;;;0.77;;
